Destinations Suceava Stefan cel Mare Airport

Suceava Stefan cel Mare Airport (LRSV / SCV)

Flights to Suceava Stefan cel Mare Airport

Flight number From ETE Dispatch
SPY-518 EHGG Groningen Airport Eelde 02:30

Flights from Suceava Stefan cel Mare Airport

Flight number To ETE Dispatch
SPY-519 EHGG Groningen Airport Eelde
About

Suceava Stefan cel Mare Airport facts

Suceava Stefan cel Mare Airport is located in Suceava at an elevation of 419.1 meters or 1375 feet.

Currently, Speedy Airlines serves 2 flights to and from Suceava Stefan cel Mare Airport.

Detailed airport info

Route map

Weather

Current weather

METAR

METAR

Metar data retrieved Sunday, 21 July 2024 at 19:55 UTC

LRSV 211930Z 02005KT 6000 SCT004 BKN010 19/18 Q1010
Wind Temperature
5 kt 19c